sensor_id;sensor_type;location;lat;lon;timestamp;P1;durP1;ratioP1;P2;durP2;ratioP2
29120;SDS011;16191;49.548;8.658;2023-06-14T00:01:41;4.72;;;3.03;;
29120;SDS011;16191;49.548;8.658;2023-06-14T00:04:07;6.80;;;3.60;;
29120;SDS011;16191;49.548;8.658;2023-06-14T00:06:35;8.05;;;3.65;;
29120;SDS011;16191;49.548;8.658;2023-06-14T00:09:02;4.75;;;3.22;;
29120;SDS011;16191;49.548;8.658;2023-06-14T00:11:29;5.10;;;3.20;;
29120;SDS011;16191;49.548;8.658;2023-06-14T00:13:56;8.18;;;3.22;;
29120;SDS011;16191;49.548;8.658;2023-06-14T00:16:23;4.95;;;3.70;;
29120;SDS011;16191;49.548;8.658;2023-06-14T00:18:50;5.57;;;3.28;;
29120;SDS011;16191;49.548;8.658;2023-06-14T00:21:20;7.43;;;3.50;;
29120;SDS011;16191;49.548;8.658;2023-06-14T00:23:47;5.60;;;3.50;;
29120;SDS011;16191;49.548;8.658;2023-06-14T00:26:13;6.47;;;3.22;;
29120;SDS011;16191;49.548;8.658;2023-06-14T00:28:43;6.10;;;3.08;;
29120;SDS011;16191;49.548;8.658;2023-06-14T00:31:09;5.53;;;3.15;;
29120;SDS011;16191;49.548;8.658;2023-06-14T00:33:36;6.75;;;3.10;;
29120;SDS011;16191;49.548;8.658;2023-06-14T00:36:04;8.45;;;3.22;;
29120;SDS011;16191;49.548;8.658;2023-06-14T00:38:30;6.93;;;3.42;;
29120;SDS011;16191;49.548;8.658;2023-06-14T00:40:57;6.32;;;3.40;;
29120;SDS011;16191;49.548;8.658;2023-06-14T00:43:23;5.20;;;3.30;;
29120;SDS011;16191;49.548;8.658;2023-06-14T00:45:50;11.98;;;3.63;;
29120;SDS011;16191;49.548;8.658;2023-06-14T00:48:17;4.10;;;3.35;;
29120;SDS011;16191;49.548;8.658;2023-06-14T00:50:45;4.05;;;3.35;;
29120;SDS011;16191;49.548;8.658;2023-06-14T00:53:12;4.63;;;3.13;;
29120;SDS011;16191;49.548;8.658;2023-06-14T00:55:41;5.20;;;3.58;;
29120;SDS011;16191;49.548;8.658;2023-06-14T00:58:08;6.88;;;3.17;;
29120;SDS011;16191;49.548;8.658;2023-06-14T01:00:35;11.35;;;3.78;;
29120;SDS011;16191;49.548;8.658;2023-06-14T01:03:02;6.78;;;3.45;;
29120;SDS011;16191;49.548;8.658;2023-06-14T01:05:29;6.25;;;3.40;;
29120;SDS011;16191;49.548;8.658;2023-06-14T01:08:02;6.22;;;3.22;;
29120;SDS011;16191;49.548;8.658;2023-06-14T01:10:41;5.45;;;3.35;;
29120;SDS011;16191;49.548;8.658;2023-06-14T01:13:45;6.70;;;3.55;;
29120;SDS011;16191;49.548;8.658;2023-06-14T01:16:13;8.95;;;3.30;;
29120;SDS011;16191;49.548;8.658;2023-06-14T01:18:40;6.25;;;3.13;;
29120;SDS011;16191;49.548;8.658;2023-06-14T01:21:19;9.02;;;3.47;;
29120;SDS011;16191;49.548;8.658;2023-06-14T01:23:48;7.70;;;3.13;;
29120;SDS011;16191;49.548;8.658;2023-06-14T01:26:19;8.80;;;3.33;;
29120;SDS011;16191;49.548;8.658;2023-06-14T01:28:50;10.48;;;3.83;;
29120;SDS011;16191;49.548;8.658;2023-06-14T01:31:22;6.38;;;3.30;;
29120;SDS011;16191;49.548;8.658;2023-06-14T01:33:49;11.35;;;3.53;;
29120;SDS011;16191;49.548;8.658;2023-06-14T01:36:20;11.18;;;3.30;;
29120;SDS011;16191;49.548;8.658;2023-06-14T01:38:49;7.95;;;3.40;;
29120;SDS011;16191;49.548;8.658;2023-06-14T01:41:18;15.57;;;3.40;;
29120;SDS011;16191;49.548;8.658;2023-06-14T01:43:47;5.00;;;3.13;;
29120;SDS011;16191;49.548;8.658;2023-06-14T01:46:16;4.70;;;3.40;;
29120;SDS011;16191;49.548;8.658;2023-06-14T01:49:03;8.30;;;3.45;;
29120;SDS011;16191;49.548;8.658;2023-06-14T01:51:52;4.90;;;3.10;;
29120;SDS011;16191;49.548;8.658;2023-06-14T01:54:38;7.45;;;3.50;;
29120;SDS011;16191;49.548;8.658;2023-06-14T01:57:28;5.05;;;3.22;;
29120;SDS011;16191;49.548;8.658;2023-06-14T02:00:16;10.15;;;3.10;;
29120;SDS011;16191;49.548;8.658;2023-06-14T02:03:04;7.85;;;2.85;;
29120;SDS011;16191;49.548;8.658;2023-06-14T02:05:31;6.88;;;3.20;;
29120;SDS011;16191;49.548;8.658;2023-06-14T02:07:58;6.43;;;3.30;;
29120;SDS011;16191;49.548;8.658;2023-06-14T02:10:24;8.90;;;3.67;;
29120;SDS011;16191;49.548;8.658;2023-06-14T02:12:53;7.32;;;3.22;;
29120;SDS011;16191;49.548;8.658;2023-06-14T02:15:20;6.53;;;3.47;;
29120;SDS011;16191;49.548;8.658;2023-06-14T02:17:48;5.40;;;3.10;;
29120;SDS011;16191;49.548;8.658;2023-06-14T02:20:16;5.07;;;3.13;;
29120;SDS011;16191;49.548;8.658;2023-06-14T02:22:44;6.50;;;3.20;;
29120;SDS011;16191;49.548;8.658;2023-06-14T02:25:11;6.40;;;3.00;;
29120;SDS011;16191;49.548;8.658;2023-06-14T02:27:39;5.55;;;3.40;;
29120;SDS011;16191;49.548;8.658;2023-06-14T02:30:06;9.35;;;3.45;;
29120;SDS011;16191;49.548;8.658;2023-06-14T02:32:33;8.23;;;3.80;;
29120;SDS011;16191;49.548;8.658;2023-06-14T02:35:02;6.80;;;3.00;;
29120;SDS011;16191;49.548;8.658;2023-06-14T02:37:29;8.98;;;3.40;;
29120;SDS011;16191;49.548;8.658;2023-06-14T02:39:56;6.82;;;3.33;;
29120;SDS011;16191;49.548;8.658;2023-06-14T02:42:23;7.20;;;3.55;;
29120;SDS011;16191;49.548;8.658;2023-06-14T02:44:50;7.05;;;3.35;;
29120;SDS011;16191;49.548;8.658;2023-06-14T02:47:18;4.90;;;2.88;;
29120;SDS011;16191;49.548;8.658;2023-06-14T02:49:45;6.05;;;3.05;;
29120;SDS011;16191;49.548;8.658;2023-06-14T02:52:14;6.57;;;3.60;;
29120;SDS011;16191;49.548;8.658;2023-06-14T02:54:41;5.93;;;3.10;;
29120;SDS011;16191;49.548;8.658;2023-06-14T02:57:09;4.30;;;3.33;;
29120;SDS011;16191;49.548;8.658;2023-06-14T02:59:38;7.70;;;3.70;;
29120;SDS011;16191;49.548;8.658;2023-06-14T03:02:05;6.10;;;3.17;;
29120;SDS011;16191;49.548;8.658;2023-06-14T03:04:33;12.43;;;3.13;;
29120;SDS011;16191;49.548;8.658;2023-06-14T03:07:08;4.50;;;3.00;;
29120;SDS011;16191;49.548;8.658;2023-06-14T03:09:41;6.78;;;3.25;;
29120;SDS011;16191;49.548;8.658;2023-06-14T03:12:10;9.60;;;3.13;;
29120;SDS011;16191;49.548;8.658;2023-06-14T03:14:38;5.50;;;3.17;;
29120;SDS011;16191;49.548;8.658;2023-06-14T03:17:06;6.53;;;3.42;;
29120;SDS011;16191;49.548;8.658;2023-06-14T03:19:35;5.25;;;3.72;;
29120;SDS011;16191;49.548;8.658;2023-06-14T03:22:03;5.72;;;3.85;;
29120;SDS011;16191;49.548;8.658;2023-06-14T03:24:32;7.13;;;3.67;;
29120;SDS011;16191;49.548;8.658;2023-06-14T03:27:08;7.50;;;3.88;;
29120;SDS011;16191;49.548;8.658;2023-06-14T03:29:39;5.10;;;3.33;;
29120;SDS011;16191;49.548;8.658;2023-06-14T03:32:07;7.15;;;3.60;;
29120;SDS011;16191;49.548;8.658;2023-06-14T03:34:40;7.75;;;4.28;;
29120;SDS011;16191;49.548;8.658;2023-06-14T03:37:11;8.18;;;3.53;;
29120;SDS011;16191;49.548;8.658;2023-06-14T03:39:37;8.13;;;3.72;;
29120;SDS011;16191;49.548;8.658;2023-06-14T03:42:05;7.40;;;3.80;;
29120;SDS011;16191;49.548;8.658;2023-06-14T03:44:32;7.70;;;3.30;;
29120;SDS011;16191;49.548;8.658;2023-06-14T03:46:59;4.97;;;3.13;;
29120;SDS011;16191;49.548;8.658;2023-06-14T03:49:27;8.63;;;3.70;;
29120;SDS011;16191;49.548;8.658;2023-06-14T03:51:54;4.32;;;3.33;;
29120;SDS011;16191;49.548;8.658;2023-06-14T03:54:23;5.82;;;4.00;;
29120;SDS011;16191;49.548;8.658;2023-06-14T03:56:53;6.15;;;3.65;;
29120;SDS011;16191;49.548;8.658;2023-06-14T03:59:20;6.55;;;3.63;;
29120;SDS011;16191;49.548;8.658;2023-06-14T04:01:47;7.00;;;3.40;;
29120;SDS011;16191;49.548;8.658;2023-06-14T04:04:15;7.45;;;3.85;;
29120;SDS011;16191;49.548;8.658;2023-06-14T04:06:45;6.93;;;3.78;;
29120;SDS011;16191;49.548;8.658;2023-06-14T04:09:15;10.95;;;3.97;;
29120;SDS011;16191;49.548;8.658;2023-06-14T04:11:41;6.07;;;4.05;;
29120;SDS011;16191;49.548;8.658;2023-06-14T04:14:08;7.15;;;3.63;;
29120;SDS011;16191;49.548;8.658;2023-06-14T04:16:35;5.40;;;3.42;;
29120;SDS011;16191;49.548;8.658;2023-06-14T04:19:01;7.03;;;3.70;;
29120;SDS011;16191;49.548;8.658;2023-06-14T04:21:28;7.53;;;3.20;;
29120;SDS011;16191;49.548;8.658;2023-06-14T04:23:58;7.70;;;3.63;;
29120;SDS011;16191;49.548;8.658;2023-06-14T04:26:29;6.10;;;3.35;;
29120;SDS011;16191;49.548;8.658;2023-06-14T04:28:56;6.22;;;3.55;;
29120;SDS011;16191;49.548;8.658;2023-06-14T04:31:29;5.82;;;3.65;;
29120;SDS011;16191;49.548;8.658;2023-06-14T04:34:01;9.15;;;3.58;;
29120;SDS011;16191;49.548;8.658;2023-06-14T04:36:35;8.25;;;3.65;;
29120;SDS011;16191;49.548;8.658;2023-06-14T04:39:05;17.92;;;3.78;;
29120;SDS011;16191;49.548;8.658;2023-06-14T04:41:32;7.65;;;3.70;;
29120;SDS011;16191;49.548;8.658;2023-06-14T04:44:00;4.28;;;3.30;;
29120;SDS011;16191;49.548;8.658;2023-06-14T04:46:31;6.53;;;4.00;;
29120;SDS011;16191;49.548;8.658;2023-06-14T04:48:58;4.88;;;3.17;;
29120;SDS011;16191;49.548;8.658;2023-06-14T04:51:28;5.38;;;3.60;;
29120;SDS011;16191;49.548;8.658;2023-06-14T04:54:00;5.72;;;3.50;;
29120;SDS011;16191;49.548;8.658;2023-06-14T04:56:28;5.35;;;3.58;;
29120;SDS011;16191;49.548;8.658;2023-06-14T04:58:55;8.73;;;3.60;;
29120;SDS011;16191;49.548;8.658;2023-06-14T05:01:23;8.48;;;3.72;;
29120;SDS011;16191;49.548;8.658;2023-06-14T05:03:50;5.82;;;3.40;;
29120;SDS011;16191;49.548;8.658;2023-06-14T05:06:17;8.23;;;4.20;;
29120;SDS011;16191;49.548;8.658;2023-06-14T05:08:44;11.63;;;4.00;;
29120;SDS011;16191;49.548;8.658;2023-06-14T05:11:12;6.07;;;3.70;;
29120;SDS011;16191;49.548;8.658;2023-06-14T05:13:39;10.10;;;3.35;;
29120;SDS011;16191;49.548;8.658;2023-06-14T05:16:09;8.02;;;3.28;;
29120;SDS011;16191;49.548;8.658;2023-06-14T05:18:36;6.32;;;3.83;;
29120;SDS011;16191;49.548;8.658;2023-06-14T05:21:04;8.65;;;4.15;;
29120;SDS011;16191;49.548;8.658;2023-06-14T05:23:32;9.93;;;3.38;;
29120;SDS011;16191;49.548;8.658;2023-06-14T05:25:59;5.90;;;3.40;;
29120;SDS011;16191;49.548;8.658;2023-06-14T05:28:25;6.97;;;3.45;;
29120;SDS011;16191;49.548;8.658;2023-06-14T05:30:52;13.88;;;4.35;;
29120;SDS011;16191;49.548;8.658;2023-06-14T05:33:19;5.18;;;3.55;;
29120;SDS011;16191;49.548;8.658;2023-06-14T05:35:46;12.80;;;3.95;;
29120;SDS011;16191;49.548;8.658;2023-06-14T05:38:13;10.27;;;3.50;;
29120;SDS011;16191;49.548;8.658;2023-06-14T05:40:39;5.63;;;3.53;;
29120;SDS011;16191;49.548;8.658;2023-06-14T05:43:06;9.40;;;3.50;;
29120;SDS011;16191;49.548;8.658;2023-06-14T05:45:33;6.28;;;3.78;;
29120;SDS011;16191;49.548;8.658;2023-06-14T05:47:59;9.77;;;3.72;;
29120;SDS011;16191;49.548;8.658;2023-06-14T05:50:26;8.15;;;3.63;;
29120;SDS011;16191;49.548;8.658;2023-06-14T05:52:53;8.55;;;3.65;;
29120;SDS011;16191;49.548;8.658;2023-06-14T05:55:20;7.90;;;3.30;;
29120;SDS011;16191;49.548;8.658;2023-06-14T05:57:47;10.85;;;3.63;;
29120;SDS011;16191;49.548;8.658;2023-06-14T06:00:14;11.40;;;3.88;;
29120;SDS011;16191;49.548;8.658;2023-06-14T06:02:42;9.98;;;3.50;;
29120;SDS011;16191;49.548;8.658;2023-06-14T06:05:10;9.38;;;3.63;;
29120;SDS011;16191;49.548;8.658;2023-06-14T06:07:38;6.40;;;3.55;;
29120;SDS011;16191;49.548;8.658;2023-06-14T06:10:10;9.32;;;3.38;;
29120;SDS011;16191;49.548;8.658;2023-06-14T06:12:37;10.05;;;3.90;;
29120;SDS011;16191;49.548;8.658;2023-06-14T06:15:04;7.65;;;3.28;;
29120;SDS011;16191;49.548;8.658;2023-06-14T06:17:31;8.20;;;3.78;;
29120;SDS011;16191;49.548;8.658;2023-06-14T06:20:16;8.05;;;3.47;;
29120;SDS011;16191;49.548;8.658;2023-06-14T06:22:43;8.95;;;3.95;;
29120;SDS011;16191;49.548;8.658;2023-06-14T06:25:10;6.53;;;3.70;;
29120;SDS011;16191;49.548;8.658;2023-06-14T06:27:37;7.05;;;3.95;;
29120;SDS011;16191;49.548;8.658;2023-06-14T06:30:04;6.82;;;3.17;;
29120;SDS011;16191;49.548;8.658;2023-06-14T06:32:31;7.80;;;3.28;;
29120;SDS011;16191;49.548;8.658;2023-06-14T06:34:58;7.68;;;3.72;;
29120;SDS011;16191;49.548;8.658;2023-06-14T06:37:26;6.05;;;3.25;;
29120;SDS011;16191;49.548;8.658;2023-06-14T06:39:53;4.30;;;3.38;;
29120;SDS011;16191;49.548;8.658;2023-06-14T06:42:19;7.10;;;3.45;;
29120;SDS011;16191;49.548;8.658;2023-06-14T06:44:49;8.00;;;3.20;;
29120;SDS011;16191;49.548;8.658;2023-06-14T06:47:15;5.20;;;3.03;;
29120;SDS011;16191;49.548;8.658;2023-06-14T06:49:42;5.32;;;3.08;;
29120;SDS011;16191;49.548;8.658;2023-06-14T06:52:08;10.32;;;3.25;;
29120;SDS011;16191;49.548;8.658;2023-06-14T06:54:35;10.55;;;3.13;;
29120;SDS011;16191;49.548;8.658;2023-06-14T06:57:02;5.13;;;3.15;;
29120;SDS011;16191;49.548;8.658;2023-06-14T06:59:29;14.50;;;3.80;;
29120;SDS011;16191;49.548;8.658;2023-06-14T07:01:56;11.07;;;3.10;;
29120;SDS011;16191;49.548;8.658;2023-06-14T07:04:23;11.52;;;3.25;;
29120;SDS011;16191;49.548;8.658;2023-06-14T07:06:50;5.80;;;3.08;;
29120;SDS011;16191;49.548;8.658;2023-06-14T07:09:16;5.53;;;2.97;;
29120;SDS011;16191;49.548;8.658;2023-06-14T07:11:43;6.10;;;3.38;;
29120;SDS011;16191;49.548;8.658;2023-06-14T07:14:11;4.75;;;2.42;;
29120;SDS011;16191;49.548;8.658;2023-06-14T07:16:38;7.95;;;3.20;;
29120;SDS011;16191;49.548;8.658;2023-06-14T07:19:05;6.07;;;3.33;;
29120;SDS011;16191;49.548;8.658;2023-06-14T07:21:31;6.47;;;2.97;;
29120;SDS011;16191;49.548;8.658;2023-06-14T07:23:58;4.57;;;2.83;;
29120;SDS011;16191;49.548;8.658;2023-06-14T07:26:25;9.50;;;3.47;;
29120;SDS011;16191;49.548;8.658;2023-06-14T07:28:52;5.80;;;2.80;;
29120;SDS011;16191;49.548;8.658;2023-06-14T07:31:19;6.28;;;2.90;;
29120;SDS011;16191;49.548;8.658;2023-06-14T07:33:45;4.63;;;3.03;;
29120;SDS011;16191;49.548;8.658;2023-06-14T07:36:12;5.68;;;2.92;;
29120;SDS011;16191;49.548;8.658;2023-06-14T07:38:39;4.43;;;3.00;;
29120;SDS011;16191;49.548;8.658;2023-06-14T07:41:07;7.68;;;3.00;;
29120;SDS011;16191;49.548;8.658;2023-06-14T07:43:34;12.75;;;3.35;;
29120;SDS011;16191;49.548;8.658;2023-06-14T07:46:01;6.53;;;3.10;;
29120;SDS011;16191;49.548;8.658;2023-06-14T07:48:33;3.97;;;2.97;;
29120;SDS011;16191;49.548;8.658;2023-06-14T07:51:00;7.85;;;2.53;;
29120;SDS011;16191;49.548;8.658;2023-06-14T07:53:27;4.88;;;3.05;;
29120;SDS011;16191;49.548;8.658;2023-06-14T07:55:54;3.47;;;2.70;;
29120;SDS011;16191;49.548;8.658;2023-06-14T07:58:21;5.28;;;2.72;;
29120;SDS011;16191;49.548;8.658;2023-06-14T08:00:48;8.10;;;3.00;;
29120;SDS011;16191;49.548;8.658;2023-06-14T08:03:14;4.13;;;2.70;;
29120;SDS011;16191;49.548;8.658;2023-06-14T08:05:42;4.50;;;3.08;;
29120;SDS011;16191;49.548;8.658;2023-06-14T08:08:08;4.45;;;3.05;;
29120;SDS011;16191;49.548;8.658;2023-06-14T08:10:35;5.82;;;2.90;;
29120;SDS011;16191;49.548;8.658;2023-06-14T08:13:01;3.58;;;2.53;;
29120;SDS011;16191;49.548;8.658;2023-06-14T08:15:28;6.97;;;2.95;;
29120;SDS011;16191;49.548;8.658;2023-06-14T08:17:55;7.65;;;3.28;;
29120;SDS011;16191;49.548;8.658;2023-06-14T08:20:22;6.28;;;3.00;;
29120;SDS011;16191;49.548;8.658;2023-06-14T08:22:49;13.77;;;3.38;;
29120;SDS011;16191;49.548;8.658;2023-06-14T08:25:16;3.22;;;2.40;;
29120;SDS011;16191;49.548;8.658;2023-06-14T08:27:43;6.68;;;2.85;;
29120;SDS011;16191;49.548;8.658;2023-06-14T08:30:09;5.05;;;3.17;;
29120;SDS011;16191;49.548;8.658;2023-06-14T08:32:37;9.10;;;2.97;;
29120;SDS011;16191;49.548;8.658;2023-06-14T08:35:04;6.00;;;2.83;;
29120;SDS011;16191;49.548;8.658;2023-06-14T08:37:31;4.43;;;2.70;;
29120;SDS011;16191;49.548;8.658;2023-06-14T08:40:00;7.05;;;2.50;;
29120;SDS011;16191;49.548;8.658;2023-06-14T08:42:27;6.50;;;2.70;;
29120;SDS011;16191;49.548;8.658;2023-06-14T08:44:57;4.57;;;2.90;;
29120;SDS011;16191;49.548;8.658;2023-06-14T08:47:25;5.40;;;3.22;;
29120;SDS011;16191;49.548;8.658;2023-06-14T08:49:53;6.75;;;2.97;;
29120;SDS011;16191;49.548;8.658;2023-06-14T08:52:23;14.02;;;3.30;;
29120;SDS011;16191;49.548;8.658;2023-06-14T08:54:56;6.80;;;2.45;;
29120;SDS011;16191;49.548;8.658;2023-06-14T08:57:23;6.97;;;2.63;;
29120;SDS011;16191;49.548;8.658;2023-06-14T08:59:51;9.98;;;2.80;;
29120;SDS011;16191;49.548;8.658;2023-06-14T09:02:19;4.85;;;2.58;;
29120;SDS011;16191;49.548;8.658;2023-06-14T09:04:48;5.73;;;2.57;;
29120;SDS011;16191;49.548;8.658;2023-06-14T09:07:18;4.72;;;2.75;;
29120;SDS011;16191;49.548;8.658;2023-06-14T09:09:45;3.78;;;2.63;;
29120;SDS011;16191;49.548;8.658;2023-06-14T09:12:31;5.10;;;2.58;;
29120;SDS011;16191;49.548;8.658;2023-06-14T09:14:58;3.83;;;2.47;;
29120;SDS011;16191;49.548;8.658;2023-06-14T09:17:25;5.65;;;2.90;;
29120;SDS011;16191;49.548;8.658;2023-06-14T09:19:53;8.02;;;2.83;;
29120;SDS011;16191;49.548;8.658;2023-06-14T09:22:21;6.00;;;2.60;;
29120;SDS011;16191;49.548;8.658;2023-06-14T09:24:48;8.38;;;2.80;;
29120;SDS011;16191;49.548;8.658;2023-06-14T09:27:15;4.68;;;2.58;;
29120;SDS011;16191;49.548;8.658;2023-06-14T09:29:42;5.28;;;2.17;;
29120;SDS011;16191;49.548;8.658;2023-06-14T09:32:08;3.80;;;2.47;;
29120;SDS011;16191;49.548;8.658;2023-06-14T09:34:36;7.10;;;2.90;;
29120;SDS011;16191;49.548;8.658;2023-06-14T09:37:03;4.63;;;2.40;;
29120;SDS011;16191;49.548;8.658;2023-06-14T09:39:30;9.52;;;2.58;;
29120;SDS011;16191;49.548;8.658;2023-06-14T09:41:57;4.93;;;3.00;;
29120;SDS011;16191;49.548;8.658;2023-06-14T09:44:23;5.82;;;2.90;;
29120;SDS011;16191;49.548;8.658;2023-06-14T09:46:55;3.13;;;2.60;;
29120;SDS011;16191;49.548;8.658;2023-06-14T09:49:22;6.82;;;2.55;;
29120;SDS011;16191;49.548;8.658;2023-06-14T09:51:50;4.18;;;2.72;;
29120;SDS011;16191;49.548;8.658;2023-06-14T09:54:20;3.08;;;2.40;;
29120;SDS011;16191;49.548;8.658;2023-06-14T09:56:49;4.40;;;2.33;;
29120;SDS011;16191;49.548;8.658;2023-06-14T09:59:21;5.88;;;2.50;;
29120;SDS011;16191;49.548;8.658;2023-06-14T10:01:57;4.20;;;2.47;;
29120;SDS011;16191;49.548;8.658;2023-06-14T10:04:25;4.68;;;2.92;;
29120;SDS011;16191;49.548;8.658;2023-06-14T10:06:55;7.63;;;2.40;;
29120;SDS011;16191;49.548;8.658;2023-06-14T10:09:22;5.88;;;2.25;;
29120;SDS011;16191;49.548;8.658;2023-06-14T10:11:49;5.03;;;2.40;;
29120;SDS011;16191;49.548;8.658;2023-06-14T10:14:16;6.80;;;2.25;;
29120;SDS011;16191;49.548;8.658;2023-06-14T10:16:51;4.57;;;2.50;;
29120;SDS011;16191;49.548;8.658;2023-06-14T10:19:29;5.60;;;2.50;;
29120;SDS011;16191;49.548;8.658;2023-06-14T10:22:06;6.50;;;2.58;;
29120;SDS011;16191;49.548;8.658;2023-06-14T10:24:40;8.10;;;2.67;;
29120;SDS011;16191;49.548;8.658;2023-06-14T10:27:08;3.22;;;2.45;;
29120;SDS011;16191;49.548;8.658;2023-06-14T10:32:20;7.32;;;2.65;;
29120;SDS011;16191;49.548;8.658;2023-06-14T10:34:55;5.75;;;2.63;;
29120;SDS011;16191;49.548;8.658;2023-06-14T10:37:24;3.65;;;2.17;;
29120;SDS011;16191;49.548;8.658;2023-06-14T10:39:51;6.25;;;2.50;;
29120;SDS011;16191;49.548;8.658;2023-06-14T10:42:19;10.38;;;2.50;;
29120;SDS011;16191;49.548;8.658;2023-06-14T10:44:49;7.38;;;2.72;;
29120;SDS011;16191;49.548;8.658;2023-06-14T10:52:28;6.40;;;2.22;;
29120;SDS011;16191;49.548;8.658;2023-06-14T10:57:25;4.50;;;2.50;;
29120;SDS011;16191;49.548;8.658;2023-06-14T10:59:52;4.15;;;2.50;;
29120;SDS011;16191;49.548;8.658;2023-06-14T11:04:49;3.60;;;1.92;;
29120;SDS011;16191;49.548;8.658;2023-06-14T11:12:41;5.43;;;2.03;;
29120;SDS011;16191;49.548;8.658;2023-06-14T11:17:38;6.32;;;2.15;;
29120;SDS011;16191;49.548;8.658;2023-06-14T11:20:08;3.30;;;2.03;;
29120;SDS011;16191;49.548;8.658;2023-06-14T11:22:44;5.80;;;2.03;;
29120;SDS011;16191;49.548;8.658;2023-06-14T11:25:11;4.47;;;2.42;;
29120;SDS011;16191;49.548;8.658;2023-06-14T11:27:42;4.05;;;1.90;;
29120;SDS011;16191;49.548;8.658;2023-06-14T11:30:10;4.55;;;2.00;;
29120;SDS011;16191;49.548;8.658;2023-06-14T11:32:37;3.70;;;2.10;;
29120;SDS011;16191;49.548;8.658;2023-06-14T11:35:04;4.28;;;1.88;;
29120;SDS011;16191;49.548;8.658;2023-06-14T11:37:32;6.28;;;2.05;;
29120;SDS011;16191;49.548;8.658;2023-06-14T11:40:01;3.13;;;2.00;;
29120;SDS011;16191;49.548;8.658;2023-06-14T11:42:31;4.63;;;2.58;;
29120;SDS011;16191;49.548;8.658;2023-06-14T11:44:58;3.70;;;2.15;;
29120;SDS011;16191;49.548;8.658;2023-06-14T11:47:35;2.88;;;2.20;;
29120;SDS011;16191;49.548;8.658;2023-06-14T11:50:03;6.55;;;2.65;;
29120;SDS011;16191;49.548;8.658;2023-06-14T11:52:31;5.43;;;2.10;;
29120;SDS011;16191;49.548;8.658;2023-06-14T11:54:58;3.67;;;2.08;;
29120;SDS011;16191;49.548;8.658;2023-06-14T11:57:25;3.88;;;2.20;;
29120;SDS011;16191;49.548;8.658;2023-06-14T11:59:52;10.50;;;2.60;;
29120;SDS011;16191;49.548;8.658;2023-06-14T12:02:21;2.72;;;1.90;;
29120;SDS011;16191;49.548;8.658;2023-06-14T12:04:50;6.95;;;2.47;;
29120;SDS011;16191;49.548;8.658;2023-06-14T12:07:17;6.45;;;2.13;;
29120;SDS011;16191;49.548;8.658;2023-06-14T12:12:25;5.68;;;2.10;;
29120;SDS011;16191;49.548;8.658;2023-06-14T12:14:53;5.07;;;2.17;;
29120;SDS011;16191;49.548;8.658;2023-06-14T12:17:21;4.82;;;2.08;;
29120;SDS011;16191;49.548;8.658;2023-06-14T12:19:49;4.68;;;1.83;;
29120;SDS011;16191;49.548;8.658;2023-06-14T12:22:16;3.03;;;1.92;;
29120;SDS011;16191;49.548;8.658;2023-06-14T12:27:36;3.45;;;1.80;;
29120;SDS011;16191;49.548;8.658;2023-06-14T12:30:06;4.45;;;2.22;;
29120;SDS011;16191;49.548;8.658;2023-06-14T12:32:34;6.47;;;2.47;;
29120;SDS011;16191;49.548;8.658;2023-06-14T12:35:01;2.72;;;2.08;;
29120;SDS011;16191;49.548;8.658;2023-06-14T12:37:28;3.05;;;2.08;;
29120;SDS011;16191;49.548;8.658;2023-06-14T12:39:55;4.93;;;2.10;;
29120;SDS011;16191;49.548;8.658;2023-06-14T12:42:22;4.82;;;2.10;;
29120;SDS011;16191;49.548;8.658;2023-06-14T12:44:49;3.17;;;1.98;;
29120;SDS011;16191;49.548;8.658;2023-06-14T12:47:15;5.35;;;2.10;;
29120;SDS011;16191;49.548;8.658;2023-06-14T12:49:42;4.93;;;2.03;;
29120;SDS011;16191;49.548;8.658;2023-06-14T12:52:09;7.88;;;2.83;;
29120;SDS011;16191;49.548;8.658;2023-06-14T12:54:35;4.55;;;2.10;;
29120;SDS011;16191;49.548;8.658;2023-06-14T12:57:06;6.35;;;2.45;;
29120;SDS011;16191;49.548;8.658;2023-06-14T12:59:34;2.92;;;2.25;;
29120;SDS011;16191;49.548;8.658;2023-06-14T13:02:13;2.38;;;1.90;;
29120;SDS011;16191;49.548;8.658;2023-06-14T13:04:41;2.22;;;1.70;;
29120;SDS011;16191;49.548;8.658;2023-06-14T13:07:08;5.53;;;2.42;;
29120;SDS011;16191;49.548;8.658;2023-06-14T13:09:37;8.70;;;2.10;;
29120;SDS011;16191;49.548;8.658;2023-06-14T13:12:04;6.30;;;2.20;;
29120;SDS011;16191;49.548;8.658;2023-06-14T13:14:31;5.30;;;2.10;;
29120;SDS011;16191;49.548;8.658;2023-06-14T13:16:58;6.13;;;2.20;;
29120;SDS011;16191;49.548;8.658;2023-06-14T13:19:25;10.05;;;2.03;;
29120;SDS011;16191;49.548;8.658;2023-06-14T13:21:52;2.92;;;1.85;;
29120;SDS011;16191;49.548;8.658;2023-06-14T13:24:18;3.20;;;2.47;;
29120;SDS011;16191;49.548;8.658;2023-06-14T13:26:45;5.05;;;2.22;;
29120;SDS011;16191;49.548;8.658;2023-06-14T13:29:11;4.28;;;2.22;;
29120;SDS011;16191;49.548;8.658;2023-06-14T13:31:38;6.40;;;2.63;;
29120;SDS011;16191;49.548;8.658;2023-06-14T13:34:05;3.25;;;2.22;;
29120;SDS011;16191;49.548;8.658;2023-06-14T13:36:32;6.57;;;2.70;;
29120;SDS011;16191;49.548;8.658;2023-06-14T13:39:01;4.10;;;2.30;;
29120;SDS011;16191;49.548;8.658;2023-06-14T13:41:28;5.10;;;2.05;;
29120;SDS011;16191;49.548;8.658;2023-06-14T13:43:58;4.93;;;2.10;;
29120;SDS011;16191;49.548;8.658;2023-06-14T13:46:25;6.00;;;2.50;;
29120;SDS011;16191;49.548;8.658;2023-06-14T13:48:52;4.13;;;2.50;;
29120;SDS011;16191;49.548;8.658;2023-06-14T13:51:36;6.57;;;2.33;;
29120;SDS011;16191;49.548;8.658;2023-06-14T13:54:20;6.50;;;2.45;;
29120;SDS011;16191;49.548;8.658;2023-06-14T13:57:05;7.18;;;2.30;;
29120;SDS011;16191;49.548;8.658;2023-06-14T13:59:32;3.20;;;1.98;;
29120;SDS011;16191;49.548;8.658;2023-06-14T14:02:17;3.03;;;2.20;;
29120;SDS011;16191;49.548;8.658;2023-06-14T14:04:44;5.70;;;2.00;;
29120;SDS011;16191;49.548;8.658;2023-06-14T14:07:17;2.92;;;2.00;;
29120;SDS011;16191;49.548;8.658;2023-06-14T14:10:02;2.08;;;1.88;;
29120;SDS011;16191;49.548;8.658;2023-06-14T14:12:29;4.15;;;2.28;;
29120;SDS011;16191;49.548;8.658;2023-06-14T14:15:13;5.60;;;2.22;;
29120;SDS011;16191;49.548;8.658;2023-06-14T14:17:41;5.00;;;2.30;;
29120;SDS011;16191;49.548;8.658;2023-06-14T14:20:25;4.28;;;2.13;;
29120;SDS011;16191;49.548;8.658;2023-06-14T14:22:51;3.63;;;2.60;;
29120;SDS011;16191;49.548;8.658;2023-06-14T14:25:18;8.18;;;2.30;;
29120;SDS011;16191;49.548;8.658;2023-06-14T14:27:45;4.03;;;2.40;;
29120;SDS011;16191;49.548;8.658;2023-06-14T14:30:29;10.25;;;2.45;;
29120;SDS011;16191;49.548;8.658;2023-06-14T14:32:56;5.22;;;2.30;;
29120;SDS011;16191;49.548;8.658;2023-06-14T14:35:23;12.50;;;2.55;;
29120;SDS011;16191;49.548;8.658;2023-06-14T14:37:52;5.53;;;2.63;;
29120;SDS011;16191;49.548;8.658;2023-06-14T14:40:18;9.63;;;2.47;;
29120;SDS011;16191;49.548;8.658;2023-06-14T14:42:45;5.90;;;2.25;;
29120;SDS011;16191;49.548;8.658;2023-06-14T14:45:12;5.05;;;2.30;;
29120;SDS011;16191;49.548;8.658;2023-06-14T14:47:38;7.43;;;2.80;;
29120;SDS011;16191;49.548;8.658;2023-06-14T14:50:05;6.38;;;2.10;;
29120;SDS011;16191;49.548;8.658;2023-06-14T14:52:35;5.13;;;2.45;;
29120;SDS011;16191;49.548;8.658;2023-06-14T14:55:02;9.73;;;2.45;;
29120;SDS011;16191;49.548;8.658;2023-06-14T14:57:29;2.63;;;1.77;;
29120;SDS011;16191;49.548;8.658;2023-06-14T14:59:57;2.83;;;2.10;;
29120;SDS011;16191;49.548;8.658;2023-06-14T15:02:24;4.78;;;2.30;;
29120;SDS011;16191;49.548;8.658;2023-06-14T15:04:51;3.83;;;1.83;;
29120;SDS011;16191;49.548;8.658;2023-06-14T15:07:18;6.18;;;2.17;;
29120;SDS011;16191;49.548;8.658;2023-06-14T15:09:44;4.30;;;2.28;;
29120;SDS011;16191;49.548;8.658;2023-06-14T15:12:11;4.65;;;2.00;;
29120;SDS011;16191;49.548;8.658;2023-06-14T15:14:38;10.07;;;2.28;;
29120;SDS011;16191;49.548;8.658;2023-06-14T15:17:05;5.32;;;1.95;;
29120;SDS011;16191;49.548;8.658;2023-06-14T15:19:34;2.67;;;1.98;;
29120;SDS011;16191;49.548;8.658;2023-06-14T15:22:02;3.47;;;2.60;;